createdAt,value
2022-11-01T00:00:18.290Z,98
2022-11-01T00:05:24.113Z,98
2022-11-01T00:10:30.062Z,98
2022-11-01T00:15:19.288Z,99
2022-11-01T00:20:25.192Z,99
2022-11-01T00:25:31.245Z,99
2022-11-01T00:30:20.461Z,99
2022-11-01T00:35:26.399Z,99
2022-11-01T00:40:32.650Z,99
2022-11-01T00:45:20.530Z,99
2022-11-01T00:50:26.543Z,99
2022-11-01T00:55:15.605Z,99
2022-11-01T01:00:21.725Z,99
2022-11-01T01:05:28.652Z,99
2022-11-01T01:10:17.744Z,99
2022-11-01T01:15:23.653Z,99
2022-11-01T01:20:29.711Z,99
2022-11-01T01:25:18.740Z,99
2022-11-01T01:30:24.802Z,99
2022-11-01T01:35:31.055Z,99
2022-11-01T01:40:19.930Z,99
2022-11-01T01:45:25.858Z,99
2022-11-01T01:50:31.951Z,99
2022-11-01T01:55:20.946Z,99
2022-11-01T02:00:27.091Z,99
2022-11-01T02:05:16.378Z,99
2022-11-01T02:10:22.452Z,99
2022-11-01T02:15:28.630Z,99
2022-11-01T02:20:17.577Z,99
2022-11-01T02:25:23.589Z,99
2022-11-01T02:30:29.646Z,99
2022-11-01T02:35:18.736Z,99
2022-11-01T02:40:24.908Z,99
2022-11-01T02:45:30.122Z,99
2022-11-01T02:50:19.187Z,99
2022-11-01T02:55:25.228Z,99
2022-11-01T03:00:31.313Z,99
2022-11-01T03:05:20.064Z,99
2022-11-01T03:10:26.177Z,99
2022-11-01T03:15:32.200Z,99
2022-11-01T03:20:21.298Z,99
2022-11-01T03:25:27.320Z,99
2022-11-01T03:30:16.376Z,99
2022-11-01T03:35:22.463Z,99
2022-11-01T03:40:28.643Z,99
2022-11-01T03:45:17.645Z,99
2022-11-01T03:50:22.789Z,99
2022-11-01T03:55:28.714Z,99
2022-11-01T04:00:18.035Z,99
2022-11-01T04:05:23.669Z,99
2022-11-01T04:10:29.811Z,99
2022-11-01T04:15:18.735Z,99
2022-11-01T04:20:24.816Z,99
2022-11-01T04:25:31.023Z,99
2022-11-01T04:30:19.884Z,99
2022-11-01T04:35:25.960Z,99
2022-11-01T04:40:32.016Z,99
2022-11-01T04:45:20.915Z,99
2022-11-01T04:50:27.116Z,99
2022-11-01T04:55:15.977Z,99
2022-11-01T05:00:22.137Z,99
2022-11-01T05:05:27.936Z,99
2022-11-01T05:10:16.946Z,99
2022-11-01T05:15:23.059Z,99
2022-11-01T05:20:29.117Z,99
2022-11-01T05:25:18.105Z,99
2022-11-01T05:30:24.216Z,99
2022-11-01T05:35:30.266Z,99
2022-11-01T05:40:19.402Z,99
2022-11-01T05:45:25.228Z,99
2022-11-01T05:50:31.325Z,99
2022-11-01T05:55:20.320Z,99
2022-11-01T06:00:26.781Z,99
2022-11-01T06:05:31.965Z,99
2022-11-01T06:10:21.020Z,99
2022-11-01T06:15:27.199Z,99
2022-11-01T06:20:16.198Z,99
2022-11-01T06:25:22.381Z,99
2022-11-01T06:30:28.258Z,99
2022-11-01T06:35:17.493Z,99
2022-11-01T06:40:23.381Z,99
2022-11-01T06:45:28.739Z,99
2022-11-01T06:50:17.655Z,99
2022-11-01T06:55:24.474Z,99
2022-11-01T07:00:30.252Z,99
2022-11-01T07:05:18.776Z,99
2022-11-01T07:10:24.899Z,99
2022-11-01T07:15:30.994Z,99
2022-11-01T07:20:20.030Z,99
2022-11-01T07:25:25.933Z,99
2022-11-01T07:30:31.978Z,99
2022-11-01T07:35:21.032Z,99
2022-11-01T07:40:27.159Z,99
2022-11-01T07:45:16.008Z,99
2022-11-01T07:50:22.107Z,99
2022-11-01T07:55:28.142Z,99
2022-11-01T08:00:17.258Z,99
2022-11-01T08:05:23.275Z,99
2022-11-01T08:10:29.173Z,99
2022-11-01T08:15:18.171Z,99
2022-11-01T08:20:24.375Z,99
2022-11-01T08:25:30.311Z,99
2022-11-01T08:30:19.323Z,99
2022-11-01T08:35:25.412Z,99
2022-11-01T08:40:31.500Z,99
2022-11-01T08:45:20.347Z,99
2022-11-01T08:50:26.563Z,99
2022-11-01T08:55:37.345Z,98
2022-11-01T09:00:21.604Z,98
2022-11-01T09:05:26.830Z,98
2022-11-01T09:10:15.879Z,97
2022-11-01T09:15:22.162Z,97
2022-11-01T09:20:28.118Z,96
2022-11-01T09:25:17.042Z,96
2022-11-01T09:30:23.247Z,96
2022-11-01T09:35:29.220Z,96
2022-11-01T09:40:18.289Z,95
2022-11-01T09:45:23.908Z,95
2022-11-01T09:50:30.207Z,94
2022-11-01T09:55:18.994Z,94
2022-11-01T10:00:25.128Z,93
2022-11-01T10:05:36.687Z,93
2022-11-01T10:10:20.478Z,93
2022-11-01T10:15:26.513Z,93
2022-11-01T10:20:32.646Z,93
2022-11-01T10:25:21.609Z,92
2022-11-01T10:30:27.707Z,92
2022-11-01T10:35:16.733Z,91
2022-11-01T10:40:22.878Z,92
2022-11-01T10:45:28.361Z,92
2022-11-01T10:50:17.423Z,92
2022-11-01T10:55:23.479Z,91
2022-11-01T11:00:29.558Z,90
2022-11-01T11:05:17.869Z,90
2022-11-01T11:10:24.613Z,90
2022-11-01T11:15:34.603Z,90
2022-11-01T11:20:19.126Z,91
2022-11-01T11:25:25.223Z,90
2022-11-01T11:30:31.154Z,90
2022-11-01T11:35:20.354Z,90
2022-11-01T11:40:26.266Z,90
2022-11-01T11:45:31.824Z,89
2022-11-01T11:50:20.654Z,90
2022-11-01T11:55:26.756Z,90
2022-11-01T12:00:16.051Z,90
2022-11-01T12:05:22.072Z,89
2022-11-01T12:10:28.069Z,89
2022-11-01T12:15:17.142Z,89
2022-11-01T12:20:23.224Z,88
2022-11-01T12:25:29.279Z,88
2022-11-01T12:30:18.292Z,88
2022-11-01T12:35:24.380Z,87
2022-11-01T12:40:30.637Z,86
2022-11-01T12:45:18.772Z,86
2022-11-01T12:50:25.059Z,85
2022-11-01T12:55:31.070Z,84
2022-11-01T13:00:20.093Z,81
2022-11-01T13:05:26.233Z,80
2022-11-01T13:10:32.296Z,80
2022-11-01T13:15:22.934Z,80
2022-11-01T13:20:27.406Z,80
2022-11-01T13:25:16.400Z,80
2022-11-01T13:30:22.628Z,81
2022-11-01T13:35:28.564Z,81
2022-11-01T13:40:17.638Z,81
2022-11-01T13:45:23.157Z,80
2022-11-01T13:50:29.212Z,79
2022-11-01T13:55:18.319Z,78
2022-11-01T14:00:24.561Z,78
2022-11-01T14:05:29.474Z,78
2022-11-01T14:10:18.658Z,79
2022-11-01T14:15:24.571Z,80
2022-11-01T14:20:30.638Z,79
2022-11-01T14:25:25.779Z,80
2022-11-01T14:30:25.858Z,80
2022-11-01T14:35:31.888Z,80
2022-11-01T14:40:20.919Z,81
2022-11-01T14:45:26.733Z,81
2022-11-01T14:50:15.891Z,81
2022-11-01T14:55:21.837Z,82
2022-11-01T15:00:27.932Z,82
2022-11-01T15:05:17.248Z,84
2022-11-01T15:10:23.428Z,85
2022-11-01T15:15:29.315Z,86
2022-11-01T15:20:18.489Z,87
2022-11-01T15:25:24.438Z,87
2022-11-01T15:30:30.542Z,88
2022-11-01T15:35:19.543Z,89
2022-11-01T15:40:25.583Z,89
2022-11-01T15:45:31.704Z,90
2022-11-01T15:50:20.701Z,89
2022-11-01T15:55:26.748Z,89
2022-11-01T16:00:16.172Z,89
2022-11-01T16:05:22.168Z,89
2022-11-01T16:10:28.192Z,88
2022-11-01T16:15:17.239Z,88
2022-11-01T16:20:23.578Z,88
2022-11-01T16:25:29.348Z,88
2022-11-01T16:30:18.396Z,88
2022-11-01T16:35:24.689Z,86
2022-11-01T16:40:30.535Z,86
2022-11-01T16:45:19.165Z,87
2022-11-01T16:50:25.437Z,88
2022-11-01T16:55:32.424Z,88
2022-11-01T17:00:21.371Z,88
2022-11-01T17:05:25.728Z,88
2022-11-01T17:10:31.957Z,89
2022-11-01T17:15:20.749Z,90
2022-11-01T17:20:27.076Z,90
2022-11-01T17:25:15.879Z,91
2022-11-01T17:30:22.142Z,91
2022-11-01T17:35:28.073Z,91
2022-11-01T17:40:17.184Z,91
2022-11-01T17:45:22.588Z,92
2022-11-01T17:50:28.624Z,93
2022-11-01T17:55:17.849Z,93
2022-11-01T18:00:23.856Z,94
2022-11-01T18:05:29.900Z,94
2022-11-01T18:10:18.918Z,95
2022-11-01T18:15:24.987Z,95
2022-11-01T18:20:31.059Z,95
2022-11-01T18:25:20.074Z,95
2022-11-01T18:30:26.139Z,96
2022-11-01T18:35:32.685Z,96
2022-11-01T18:40:21.318Z,96
2022-11-01T18:45:33.097Z,96
2022-11-01T18:50:16.623Z,96
2022-11-01T18:55:22.216Z,96
2022-11-01T19:00:28.179Z,97
2022-11-01T19:05:17.337Z,97
2022-11-01T19:10:23.349Z,97
2022-11-01T19:15:29.476Z,97
2022-11-01T19:20:18.571Z,97
2022-11-01T19:25:24.581Z,97
2022-11-01T19:30:30.810Z,97
2022-11-01T19:35:22.197Z,97
2022-11-01T19:40:27.836Z,97
2022-11-01T19:45:31.063Z,97
2022-11-01T19:50:20.062Z,97
2022-11-01T19:55:26.138Z,97
2022-11-01T20:00:32.188Z,97
2022-11-01T20:05:20.635Z,97
2022-11-01T20:10:27.480Z,98
2022-11-01T20:15:15.715Z,98
2022-11-01T20:20:21.954Z,98
2022-11-01T20:25:27.863Z,98
2022-11-01T20:30:17.080Z,98
2022-11-01T20:35:22.987Z,98
2022-11-01T20:40:29.168Z,98
2022-11-01T20:45:18.325Z,98
2022-11-01T20:50:24.543Z,98
2022-11-01T20:55:30.411Z,98
2022-11-01T21:00:19.517Z,98
2022-11-01T21:05:24.823Z,98
2022-11-01T21:10:30.857Z,98
2022-11-01T21:15:19.959Z,98
2022-11-01T21:20:26.025Z,98
2022-11-01T21:25:32.198Z,98
2022-11-01T21:30:21.053Z,98
2022-11-01T21:35:27.162Z,98
2022-11-01T21:40:16.265Z,98
2022-11-01T21:45:21.871Z,98
2022-11-01T21:50:27.820Z,98
2022-11-01T21:55:16.885Z,98
2022-11-01T22:00:22.975Z,98
2022-11-01T22:05:29.464Z,98
2022-11-01T22:10:18.309Z,98
2022-11-01T22:15:24.386Z,99
2022-11-01T22:20:30.473Z,99
2022-11-01T22:25:19.626Z,99
2022-11-01T22:30:25.566Z,99
2022-11-01T22:35:31.632Z,99
2022-11-01T22:40:20.677Z,99
2022-11-01T22:45:26.317Z,99
2022-11-01T22:50:32.351Z,99
2022-11-01T22:55:21.376Z,99
2022-11-01T23:00:27.642Z,99
2022-11-01T23:05:15.872Z,99
2022-11-01T23:10:22.116Z,99
2022-11-01T23:15:27.916Z,99
2022-11-01T23:20:17.314Z,99
2022-11-01T23:25:23.069Z,99
2022-11-01T23:30:29.090Z,99
2022-11-01T23:35:18.140Z,99
2022-11-01T23:40:24.230Z,99
2022-11-01T23:45:29.888Z,99
2022-11-01T23:50:18.948Z,99
2022-11-01T23:55:25.009Z,99
